sensor_id;sensor_type;location;lat;lon;timestamp;pressure;altitude;pressure_sealevel;temperature;humidity
24013;BME280;12220;50.194;18.948;2023-01-25T00:01:16;103892.53;;;3.24;81.65
24013;BME280;12220;50.194;18.948;2023-01-25T00:03:17;103892.52;;;3.22;81.63
24013;BME280;12220;50.194;18.948;2023-01-25T00:05:27;103897.00;;;3.20;81.68
24013;BME280;12220;50.194;18.948;2023-01-25T00:07:32;103887.07;;;3.19;81.66
24013;BME280;12220;50.194;18.948;2023-01-25T00:09:36;103893.38;;;3.18;81.70
24013;BME280;12220;50.194;18.948;2023-01-25T00:11:37;103891.55;;;3.17;81.78
24013;BME280;12220;50.194;18.948;2023-01-25T00:13:42;103895.18;;;3.18;81.76
24013;BME280;12220;50.194;18.948;2023-01-25T00:15:44;103898.77;;;3.17;81.74
24013;BME280;12220;50.194;18.948;2023-01-25T00:17:48;103900.59;;;3.16;81.78
24013;BME280;12220;50.194;18.948;2023-01-25T00:19:50;103896.96;;;3.17;81.79
24013;BME280;12220;50.194;18.948;2023-01-25T00:21:59;103887.06;;;3.18;81.77
24013;BME280;12220;50.194;18.948;2023-01-25T00:24:00;103880.70;;;3.16;81.78
24013;BME280;12220;50.194;18.948;2023-01-25T00:26:05;103880.70;;;3.16;81.78
24013;BME280;12220;50.194;18.948;2023-01-25T00:28:07;103886.09;;;3.14;81.76
24013;BME280;12220;50.194;18.948;2023-01-25T00:30:17;103880.66;;;3.12;81.77
24013;BME280;12220;50.194;18.948;2023-01-25T00:32:35;103874.37;;;3.13;81.84
24013;BME280;12220;50.194;18.948;2023-01-25T00:34:48;103887.00;;;3.14;81.90
24013;BME280;12220;50.194;18.948;2023-01-25T00:36:52;103883.41;;;3.16;81.86
24013;BME280;12220;50.194;18.948;2023-01-25T00:38:56;103887.94;;;3.17;81.75
24013;BME280;12220;50.194;18.948;2023-01-25T00:41:07;103888.80;;;3.14;81.80
24013;BME280;12220;50.194;18.948;2023-01-25T00:43:12;103902.34;;;3.14;81.77
24013;BME280;12220;50.194;18.948;2023-01-25T00:45:14;103894.23;;;3.14;81.79
24013;BME280;12220;50.194;18.948;2023-01-25T00:47:17;103896.03;;;3.13;81.78
24013;BME280;12220;50.194;18.948;2023-01-25T00:49:24;103890.63;;;3.13;81.82
24013;BME280;12220;50.194;18.948;2023-01-25T00:51:26;103668.79;;;1.10;81.55
24013;BME280;12220;50.194;18.948;2023-01-25T00:53:28;103892.37;;;3.11;81.79
24013;BME280;12220;50.194;18.948;2023-01-25T00:55:29;103885.20;;;3.13;81.90
24013;BME280;12220;50.194;18.948;2023-01-25T00:57:37;103884.29;;;3.14;81.94
24013;BME280;12220;50.194;18.948;2023-01-25T00:59:39;103882.52;;;3.17;81.89
24013;BME280;12220;50.194;18.948;2023-01-25T01:01:45;103881.63;;;3.16;81.85
24013;BME280;12220;50.194;18.948;2023-01-25T01:03:47;103886.11;;;3.16;81.78
24013;BME280;12220;50.194;18.948;2023-01-25T01:05:59;103877.99;;;3.16;81.84
24013;BME280;12220;50.194;18.948;2023-01-25T01:08:01;103877.99;;;3.16;81.78
24013;BME280;12220;50.194;18.948;2023-01-25T01:10:03;103873.51;;;3.16;81.79
24013;BME280;12220;50.194;18.948;2023-01-25T01:12:08;103869.86;;;3.16;81.75
24013;BME280;12220;50.194;18.948;2023-01-25T01:14:10;103877.11;;;3.17;81.77
24013;BME280;12220;50.194;18.948;2023-01-25T01:16:12;103865.38;;;3.16;81.76
24013;BME280;12220;50.194;18.948;2023-01-25T01:18:14;103863.58;;;3.17;81.70
24013;BME280;12220;50.194;18.948;2023-01-25T01:20:15;103850.00;;;3.15;81.63
24013;BME280;12220;50.194;18.948;2023-01-25T01:22:23;103843.66;;;3.14;81.66
24013;BME280;12220;50.194;18.948;2023-01-25T01:24:24;103835.52;;;3.13;81.68
24013;BME280;12220;50.194;18.948;2023-01-25T01:26:26;103840.95;;;3.14;81.67
24013;BME280;12220;50.194;18.948;2023-01-25T01:28:28;103840.05;;;3.12;81.57
24013;BME280;12220;50.194;18.948;2023-01-25T01:30:38;103834.61;;;3.11;81.59
24013;BME280;12220;50.194;18.948;2023-01-25T01:32:40;103834.59;;;3.09;81.58
24013;BME280;12220;50.194;18.948;2023-01-25T01:34:41;103839.13;;;3.09;81.62
24013;BME280;12220;50.194;18.948;2023-01-25T01:36:44;103838.20;;;3.08;81.59
24013;BME280;12220;50.194;18.948;2023-01-25T01:38:53;103835.48;;;3.08;81.63
24013;BME280;12220;50.194;18.948;2023-01-25T01:40:55;103838.20;;;3.08;81.60
24013;BME280;12220;50.194;18.948;2023-01-25T01:42:58;103835.48;;;3.08;81.60
24013;BME280;12220;50.194;18.948;2023-01-25T01:47:22;103830.06;;;3.08;81.53
24013;BME280;12220;50.194;18.948;2023-01-25T01:49:31;103772.03;;;2.82;81.56
24013;BME280;12220;50.194;18.948;2023-01-25T01:51:42;103823.79;;;3.11;81.59
24013;BME280;12220;50.194;18.948;2023-01-25T01:53:49;103821.98;;;3.13;81.62
24013;BME280;12220;50.194;18.948;2023-01-25T01:55:55;103814.80;;;3.13;81.54
24013;BME280;12220;50.194;18.948;2023-01-25T01:57:58;103808.46;;;3.14;81.55
24013;BME280;12220;50.194;18.948;2023-01-25T02:00:14;103809.39;;;3.15;81.53
24013;BME280;12220;50.194;18.948;2023-01-25T02:02:17;103810.29;;;3.16;81.47
24013;BME280;12220;50.194;18.948;2023-01-25T02:04:21;103803.10;;;3.16;81.40
24013;BME280;12220;50.194;18.948;2023-01-25T02:08:38;103799.45;;;3.16;81.37
24013;BME280;12220;50.194;18.948;2023-01-25T02:10:48;103796.75;;;3.16;81.33
24013;BME280;12220;50.194;18.948;2023-01-25T02:12:51;103798.55;;;3.13;81.21
24013;BME280;12220;50.194;18.948;2023-01-25T02:14:54;103797.61;;;3.13;81.18
24013;BME280;12220;50.194;18.948;2023-01-25T02:16:57;103789.47;;;3.10;81.19
24013;BME280;12220;50.194;18.948;2023-01-25T02:19:04;103794.88;;;3.10;81.21
24013;BME280;12220;50.194;18.948;2023-01-25T02:21:07;103795.83;;;3.12;81.29
24013;BME280;12220;50.194;18.948;2023-01-25T02:23:17;103790.41;;;3.12;81.18
24013;BME280;12220;50.194;18.948;2023-01-25T02:25:20;103786.77;;;3.11;81.11
24013;BME280;12220;50.194;18.948;2023-01-25T02:27:22;103790.41;;;3.12;81.03
24013;BME280;12220;50.194;18.948;2023-01-25T02:29:25;103781.32;;;3.08;80.95
24013;BME280;12220;50.194;18.948;2023-01-25T02:31:27;103787.66;;;3.07;81.01
24013;BME280;12220;50.194;18.948;2023-01-25T02:33:29;103789.45;;;3.08;81.09
24013;BME280;12220;50.194;18.948;2023-01-25T02:37:54;103790.39;;;3.10;81.06
24013;BME280;12220;50.194;18.948;2023-01-25T02:39:55;103794.88;;;3.10;81.02
24013;BME280;12220;50.194;18.948;2023-01-25T02:41:57;103786.77;;;3.11;81.06
24013;BME280;12220;50.194;18.948;2023-01-25T02:44:00;103794.01;;;3.12;81.05
24013;BME280;12220;50.194;18.948;2023-01-25T02:46:24;103795.83;;;3.12;80.98
24013;BME280;12220;50.194;18.948;2023-01-25T02:48:30;103786.77;;;3.11;81.02
24013;BME280;12220;50.194;18.948;2023-01-25T02:50:32;103796.72;;;3.12;81.04
24013;BME280;12220;50.194;18.948;2023-01-25T02:52:33;103797.61;;;3.13;80.99
24013;BME280;12220;50.194;18.948;2023-01-25T02:54:35;103785.01;;;3.13;81.08
24013;BME280;12220;50.194;18.948;2023-01-25T02:56:45;103788.63;;;3.16;81.05
24013;BME280;12220;50.194;18.948;2023-01-25T02:58:50;103790.45;;;3.17;81.08
24013;BME280;12220;50.194;18.948;2023-01-25T03:00:53;103794.05;;;3.19;81.02
24013;BME280;12220;50.194;18.948;2023-01-25T03:02:55;103787.76;;;3.18;80.99
24013;BME280;12220;50.194;18.948;2023-01-25T03:05:00;103698.81;;;2.69;81.00
24013;BME280;12220;50.194;18.948;2023-01-25T03:07:02;103783.25;;;3.22;81.11
24013;BME280;12220;50.194;18.948;2023-01-25T03:09:06;103740.63;;;2.98;81.08
24013;BME280;12220;50.194;18.948;2023-01-25T03:11:08;103777.91;;;3.28;81.11
24013;BME280;12220;50.194;18.948;2023-01-25T03:13:16;103779.71;;;3.29;81.04
24013;BME280;12220;50.194;18.948;2023-01-25T03:15:17;103772.51;;;3.28;80.93
24013;BME280;12220;50.194;18.948;2023-01-25T03:17:19;103767.09;;;3.28;80.91
24013;BME280;12220;50.194;18.948;2023-01-25T03:19:20;103776.11;;;3.28;80.92
24013;BME280;12220;50.194;18.948;2023-01-25T03:21:31;103781.53;;;3.30;80.87
24013;BME280;12220;50.194;18.948;2023-01-25T03:23:32;103781.53;;;3.30;80.89
24013;BME280;12220;50.194;18.948;2023-01-25T03:25:34;103777.95;;;3.31;80.91
24013;BME280;12220;50.194;18.948;2023-01-25T03:27:36;103777.02;;;3.30;80.92
24013;BME280;12220;50.194;18.948;2023-01-25T03:29:46;103777.95;;;3.33;80.91
24013;BME280;12220;50.194;18.948;2023-01-25T03:31:47;103775.26;;;3.33;80.84
24013;BME280;12220;50.194;18.948;2023-01-25T03:33:49;103767.12;;;3.31;80.75
24013;BME280;12220;50.194;18.948;2023-01-25T03:35:52;103770.72;;;3.31;80.77
24013;BME280;12220;50.194;18.948;2023-01-25T03:38:01;103778.86;;;3.33;80.82
24013;BME280;12220;50.194;18.948;2023-01-25T03:40:05;103777.97;;;3.34;80.83
24013;BME280;12220;50.194;18.948;2023-01-25T03:42:07;103774.38;;;3.35;80.81
24013;BME280;12220;50.194;18.948;2023-01-25T03:44:09;103776.16;;;3.35;80.75
24013;BME280;12220;50.194;18.948;2023-01-25T03:46:16;103770.74;;;3.35;80.73
24013;BME280;12220;50.194;18.948;2023-01-25T03:48:23;103781.57;;;3.35;80.69
24013;BME280;12220;50.194;18.948;2023-01-25T03:50:24;103774.38;;;3.35;80.72
24013;BME280;12220;50.194;18.948;2023-01-25T03:54:53;103766.23;;;3.32;80.67
24013;BME280;12220;50.194;18.948;2023-01-25T03:56:54;103756.27;;;3.31;80.69
24013;BME280;12220;50.194;18.948;2023-01-25T03:59:02;103762.59;;;3.31;80.70
24013;BME280;12220;50.194;18.948;2023-01-25T04:01:06;103760.81;;;3.32;80.70
24013;BME280;12220;50.194;18.948;2023-01-25T04:03:07;103755.34;;;3.29;80.64
24013;BME280;12220;50.194;18.948;2023-01-25T04:05:09;103754.43;;;3.28;80.54
24013;BME280;12220;50.194;18.948;2023-01-25T04:07:10;103755.34;;;3.30;80.74
24013;BME280;12220;50.194;18.948;2023-01-25T04:09:12;103749.93;;;3.30;80.71
24013;BME280;12220;50.194;18.948;2023-01-25T04:11:16;103748.17;;;3.33;80.70
24013;BME280;12220;50.194;18.948;2023-01-25T04:13:24;103744.55;;;3.32;80.61
24013;BME280;12220;50.194;18.948;2023-01-25T04:15:25;103741.80;;;3.30;80.65
24013;BME280;12220;50.194;18.948;2023-01-25T04:17:27;103746.34;;;3.31;80.72
24013;BME280;12220;50.194;18.948;2023-01-25T04:19:28;103738.21;;;3.31;80.68
24013;BME280;12220;50.194;18.948;2023-01-25T04:21:39;103746.34;;;3.31;80.60
24013;BME280;12220;50.194;18.948;2023-01-25T04:23:40;103741.80;;;3.30;80.61
24013;BME280;12220;50.194;18.948;2023-01-25T04:25:41;103738.21;;;3.31;80.64
24013;BME280;12220;50.194;18.948;2023-01-25T04:27:46;103748.17;;;3.33;80.67
24013;BME280;12220;50.194;18.948;2023-01-25T04:29:54;103739.15;;;3.34;80.67
24013;BME280;12220;50.194;18.948;2023-01-25T04:31:55;103737.33;;;3.34;80.67
24013;BME280;12220;50.194;18.948;2023-01-25T04:33:57;103733.74;;;3.35;80.63
24013;BME280;12220;50.194;18.948;2023-01-25T04:35:58;103725.61;;;3.35;80.51
24013;BME280;12220;50.194;18.948;2023-01-25T04:38:12;103733.73;;;3.34;80.50
24013;BME280;12220;50.194;18.948;2023-01-25T04:40:14;103727.38;;;3.33;80.44
24013;BME280;12220;50.194;18.948;2023-01-25T04:42:18;103722.89;;;3.32;80.45
24013;BME280;12220;50.194;18.948;2023-01-25T04:44:20;103721.95;;;3.30;80.48
24013;BME280;12220;50.194;18.948;2023-01-25T04:46:24;103724.66;;;3.30;80.47
24013;BME280;12220;50.194;18.948;2023-01-25T04:48:25;103720.12;;;3.29;80.49
24013;BME280;12220;50.194;18.948;2023-01-25T04:50:27;103725.54;;;3.29;80.43
24013;BME280;12220;50.194;18.948;2023-01-25T04:52:28;103718.34;;;3.28;80.38
24013;BME280;12220;50.194;18.948;2023-01-25T04:54:39;103718.34;;;3.28;80.47
24013;BME280;12220;50.194;18.948;2023-01-25T04:56:45;103715.63;;;3.28;80.50
24013;BME280;12220;50.194;18.948;2023-01-25T04:58:50;103715.61;;;3.26;80.47
24013;BME280;12220;50.194;18.948;2023-01-25T05:00:52;103711.98;;;3.27;80.46
24013;BME280;12220;50.194;18.948;2023-01-25T05:02:55;103712.00;;;3.29;80.51
24013;BME280;12220;50.194;18.948;2023-01-25T05:04:57;103712.91;;;3.29;80.53
24013;BME280;12220;50.194;18.948;2023-01-25T05:06:58;103706.59;;;3.30;80.54
24013;BME280;12220;50.194;18.948;2023-01-25T05:09:02;103704.81;;;3.31;80.53
24013;BME280;12220;50.194;18.948;2023-01-25T05:11:14;103703.95;;;3.34;80.53
24013;BME280;12220;50.194;18.948;2023-01-25T05:13:19;103710.24;;;3.34;80.50
24013;BME280;12220;50.194;18.948;2023-01-25T05:15:25;103704.82;;;3.34;80.49
24013;BME280;12220;50.194;18.948;2023-01-25T05:17:27;103699.41;;;3.36;80.49
24013;BME280;12220;50.194;18.948;2023-01-25T05:19:34;103703.95;;;3.37;80.53
24013;BME280;12220;50.194;18.948;2023-01-25T05:21:35;103703.03;;;3.38;80.49
24013;BME280;12220;50.194;18.948;2023-01-25T05:23:51;103701.24;;;3.37;80.42
24013;BME280;12220;50.194;18.948;2023-01-25T05:25:53;103697.61;;;3.36;80.39
24013;BME280;12220;50.194;18.948;2023-01-25T05:28:06;103691.30;;;3.36;80.33
24013;BME280;12220;50.194;18.948;2023-01-25T05:30:18;103692.17;;;3.35;80.37
24013;BME280;12220;50.194;18.948;2023-01-25T05:32:23;103683.16;;;3.36;80.44
24013;BME280;12220;50.194;18.948;2023-01-25T05:34:25;103689.48;;;3.36;80.46
24013;BME280;12220;50.194;18.948;2023-01-25T05:36:28;103645.95;;;3.10;80.44
24013;BME280;12220;50.194;18.948;2023-01-25T05:38:33;103688.60;;;3.39;80.47
24013;BME280;12220;50.194;18.948;2023-01-25T05:40:35;103684.08;;;3.39;80.45
24013;BME280;12220;50.194;18.948;2023-01-25T05:42:36;103687.71;;;3.38;80.42
24013;BME280;12220;50.194;18.948;2023-01-25T05:44:38;103689.50;;;3.39;80.39
24013;BME280;12220;50.194;18.948;2023-01-25T05:46:48;103690.41;;;3.38;80.37
24013;BME280;12220;50.194;18.948;2023-01-25T05:48:50;103432.14;;;1.90;80.12
24013;BME280;12220;50.194;18.948;2023-01-25T05:50:56;103685.88;;;3.36;80.18
24013;BME280;12220;50.194;18.948;2023-01-25T05:53:00;103685.88;;;3.36;80.23
24013;BME280;12220;50.194;18.948;2023-01-25T05:55:03;103684.98;;;3.34;80.28
24013;BME280;12220;50.194;18.948;2023-01-25T05:57:05;103683.16;;;3.34;80.40
24013;BME280;12220;50.194;18.948;2023-01-25T05:59:06;103679.55;;;3.34;80.41
24013;BME280;12220;50.194;18.948;2023-01-25T06:01:08;103686.76;;;3.35;80.37
24013;BME280;12220;50.194;18.948;2023-01-25T06:03:18;103679.56;;;3.35;80.42
24013;BME280;12220;50.194;18.948;2023-01-25T06:05:23;103683.16;;;3.34;80.48
24013;BME280;12220;50.194;18.948;2023-01-25T06:07:25;103684.98;;;3.35;80.50
24013;BME280;12220;50.194;18.948;2023-01-25T06:09:26;103682.27;;;3.35;80.45
24013;BME280;12220;50.194;18.948;2023-01-25T06:11:33;103688.59;;;3.36;80.38
24013;BME280;12220;50.194;18.948;2023-01-25T06:13:35;103690.41;;;3.35;80.37
24013;BME280;12220;50.194;18.948;2023-01-25T06:15:39;103684.05;;;3.35;80.35
24013;BME280;12220;50.194;18.948;2023-01-25T06:17:40;103694.90;;;3.35;80.25
24013;BME280;12220;50.194;18.948;2023-01-25T06:19:51;103692.17;;;3.33;80.30
24013;BME280;12220;50.194;18.948;2023-01-25T06:21:55;103687.67;;;3.32;80.39
24013;BME280;12220;50.194;18.948;2023-01-25T06:23:57;103718.36;;;3.33;80.45
24013;BME280;12220;50.194;18.948;2023-01-25T06:26:09;103688.58;;;3.34;80.37
24013;BME280;12220;50.194;18.948;2023-01-25T06:28:12;103684.91;;;3.30;80.20
24013;BME280;12220;50.194;18.948;2023-01-25T06:30:25;103681.29;;;3.27;80.10
24013;BME280;12220;50.194;18.948;2023-01-25T06:32:31;103692.10;;;3.22;80.04
24013;BME280;12220;50.194;18.948;2023-01-25T06:34:36;103683.02;;;3.19;80.09
24013;BME280;12220;50.194;18.948;2023-01-25T06:36:38;103689.36;;;3.18;80.17
24013;BME280;12220;50.194;18.948;2023-01-25T06:38:40;103682.12;;;3.17;80.16
24013;BME280;12220;50.194;18.948;2023-01-25T06:40:42;103682.98;;;3.14;80.16
24013;BME280;12220;50.194;18.948;2023-01-25T06:42:43;103684.80;;;3.12;80.17
24013;BME280;12220;50.194;18.948;2023-01-25T06:44:45;103681.16;;;3.11;80.25
24013;BME280;12220;50.194;18.948;2023-01-25T06:46:55;103685.70;;;3.12;80.34
24013;BME280;12220;50.194;18.948;2023-01-25T06:49:03;103681.18;;;3.13;80.41
24013;BME280;12220;50.194;18.948;2023-01-25T06:51:07;103682.10;;;3.13;80.43
24013;BME280;12220;50.194;18.948;2023-01-25T06:53:09;103682.10;;;3.13;80.36
24013;BME280;12220;50.194;18.948;2023-01-25T06:55:10;103682.10;;;3.13;80.38
24013;BME280;12220;50.194;18.948;2023-01-25T07:02:13;103672.20;;;3.20;80.42
24013;BME280;12220;50.194;18.948;2023-01-25T07:04:18;103679.43;;;3.20;80.39
24013;BME280;12220;50.194;18.948;2023-01-25T07:06:20;103665.89;;;3.21;80.43
24013;BME280;12220;50.194;18.948;2023-01-25T07:08:22;103668.62;;;3.21;80.49
24013;BME280;12220;50.194;18.948;2023-01-25T07:10:29;103670.45;;;3.24;80.48
24013;BME280;12220;50.194;18.948;2023-01-25T07:12:30;103660.51;;;3.26;80.49
24013;BME280;12220;50.194;18.948;2023-01-25T07:14:34;103656.92;;;3.27;80.45
24013;BME280;12220;50.194;18.948;2023-01-25T07:16:35;103658.73;;;3.25;80.42
24013;BME280;12220;50.194;18.948;2023-01-25T07:18:38;103660.51;;;3.26;80.42
24013;BME280;12220;50.194;18.948;2023-01-25T07:20:40;103657.80;;;3.26;80.37
24013;BME280;12220;50.194;18.948;2023-01-25T07:22:49;103655.09;;;3.26;80.27
24013;BME280;12220;50.194;18.948;2023-01-25T07:24:50;103653.30;;;3.25;80.24
24013;BME280;12220;50.194;18.948;2023-01-25T07:26:57;102989.91;;;-0.54;79.88
24013;BME280;12220;50.194;18.948;2023-01-25T07:28:59;103647.89;;;3.25;80.29
24013;BME280;12220;50.194;18.948;2023-01-25T07:31:05;103646.97;;;3.26;80.34
24013;BME280;12220;50.194;18.948;2023-01-25T07:33:24;103649.68;;;3.26;80.27
24013;BME280;12220;50.194;18.948;2023-01-25T07:38:11;103647.88;;;3.23;80.18
24013;BME280;12220;50.194;18.948;2023-01-25T07:40:35;103645.18;;;3.23;80.24
24013;BME280;12220;50.194;18.948;2023-01-25T07:42:36;103641.53;;;3.23;80.32
24013;BME280;12220;50.194;18.948;2023-01-25T07:44:48;103647.89;;;3.25;80.34
24013;BME280;12220;50.194;18.948;2023-01-25T07:46:51;103668.63;;;3.24;80.34
24013;BME280;12220;50.194;18.948;2023-01-25T07:48:53;103641.54;;;3.24;80.33
24013;BME280;12220;50.194;18.948;2023-01-25T07:51:01;103637.94;;;3.24;80.35
24013;BME280;12220;50.194;18.948;2023-01-25T07:53:12;103642.48;;;3.26;80.38
24013;BME280;12220;50.194;18.948;2023-01-25T07:55:19;103641.55;;;3.26;80.33
24013;BME280;12220;50.194;18.948;2023-01-25T07:57:21;103635.24;;;3.25;80.25
24013;BME280;12220;50.194;18.948;2023-01-25T07:59:23;103632.53;;;3.24;80.32
24013;BME280;12220;50.194;18.948;2023-01-25T08:01:28;103626.21;;;3.23;80.32
24013;BME280;12220;50.194;18.948;2023-01-25T08:03:34;103630.71;;;3.24;80.36
24013;BME280;12220;50.194;18.948;2023-01-25T08:05:35;103626.21;;;3.23;80.35
24013;BME280;12220;50.194;18.948;2023-01-25T08:07:39;103639.76;;;3.23;80.32
24013;BME280;12220;50.194;18.948;2023-01-25T08:09:41;103637.94;;;3.22;80.29
24013;BME280;12220;50.194;18.948;2023-01-25T08:11:42;103638.83;;;3.23;80.35
24013;BME280;12220;50.194;18.948;2023-01-25T08:13:44;103637.94;;;3.22;80.34
24013;BME280;12220;50.194;18.948;2023-01-25T08:15:53;103637.94;;;3.24;80.32
24013;BME280;12220;50.194;18.948;2023-01-25T08:17:58;103637.00;;;3.22;80.33
24013;BME280;12220;50.194;18.948;2023-01-25T08:20:03;103626.17;;;3.22;80.37
24013;BME280;12220;50.194;18.948;2023-01-25T08:22:07;103621.70;;;3.24;80.43
24013;BME280;12220;50.194;18.948;2023-01-25T08:24:09;103624.41;;;3.25;80.40
24013;BME280;12220;50.194;18.948;2023-01-25T08:26:13;103633.44;;;3.26;80.33
24013;BME280;12220;50.194;18.948;2023-01-25T08:28:17;103617.16;;;3.23;80.30
24013;BME280;12220;50.194;18.948;2023-01-25T08:30:19;103619.88;;;3.23;80.33
24013;BME280;12220;50.194;18.948;2023-01-25T08:32:24;103617.16;;;3.23;80.37
24013;BME280;12220;50.194;18.948;2023-01-25T08:34:27;103617.16;;;3.23;80.37
24013;BME280;12220;50.194;18.948;2023-01-25T08:36:32;103611.74;;;3.23;80.38
24013;BME280;12220;50.194;18.948;2023-01-25T08:38:34;103607.21;;;3.22;80.32
24013;BME280;12220;50.194;18.948;2023-01-25T08:40:36;103609.91;;;3.20;80.30
24013;BME280;12220;50.194;18.948;2023-01-25T08:42:42;103600.00;;;3.19;80.33
24013;BME280;12220;50.194;18.948;2023-01-25T08:44:44;103609.90;;;3.19;80.37
24013;BME280;12220;50.194;18.948;2023-01-25T08:46:45;103606.31;;;3.20;80.39
24013;BME280;12220;50.194;18.948;2023-01-25T08:48:47;103148.13;;;0.41;80.06
24013;BME280;12220;50.194;18.948;2023-01-25T08:53:29;103605.45;;;3.24;80.41
24013;BME280;12220;50.194;18.948;2023-01-25T08:55:41;103602.73;;;3.24;80.36
24013;BME280;12220;50.194;18.948;2023-01-25T08:57:43;103592.80;;;3.24;80.40
24013;BME280;12220;50.194;18.948;2023-01-25T08:59:44;103594.62;;;3.25;80.42
24013;BME280;12220;50.194;18.948;2023-01-25T09:01:46;103591.92;;;3.27;80.43
24013;BME280;12220;50.194;18.948;2023-01-25T09:03:56;103591.02;;;3.26;80.32
24013;BME280;12220;50.194;18.948;2023-01-25T09:05:58;103589.21;;;3.27;80.38
24013;BME280;12220;50.194;18.948;2023-01-25T09:08:01;103591.03;;;3.29;80.42
24013;BME280;12220;50.194;18.948;2023-01-25T09:10:04;103598.29;;;3.34;80.49
24013;BME280;12220;50.194;18.948;2023-01-25T09:12:11;103592.88;;;3.35;80.45
24013;BME280;12220;50.194;18.948;2023-01-25T09:14:13;103596.47;;;3.34;80.46
24013;BME280;12220;50.194;18.948;2023-01-25T09:16:17;103594.66;;;3.36;80.38
24013;BME280;12220;50.194;18.948;2023-01-25T09:18:29;103589.26;;;3.38;80.35
24013;BME280;12220;50.194;18.948;2023-01-25T09:20:31;103599.20;;;3.39;80.31
24013;BME280;12220;50.194;18.948;2023-01-25T09:22:35;103592.88;;;3.38;80.33
24013;BME280;12220;50.194;18.948;2023-01-25T09:24:37;103587.48;;;3.40;80.28
24013;BME280;12220;50.194;18.948;2023-01-25T09:26:40;103586.55;;;3.39;80.23
24013;BME280;12220;50.194;18.948;2023-01-25T09:28:46;102630.51;;;-2.73;79.53
24013;BME280;12220;50.194;18.948;2023-01-25T09:30:55;103579.34;;;3.35;80.25
24013;BME280;12220;50.194;18.948;2023-01-25T09:32:56;103572.09;;;3.34;80.34
24013;BME280;12220;50.194;18.948;2023-01-25T09:34:58;103570.27;;;3.35;80.34
24013;BME280;12220;50.194;18.948;2023-01-25T09:37:01;103577.52;;;3.36;80.32
24013;BME280;12220;50.194;18.948;2023-01-25T09:39:06;103559.45;;;3.35;80.35
24013;BME280;12220;50.194;18.948;2023-01-25T09:46:45;103558.57;;;3.37;80.27
24013;BME280;12220;50.194;18.948;2023-01-25T09:51:26;103545.01;;;3.34;80.22
24013;BME280;12220;50.194;18.948;2023-01-25T09:53:36;103539.59;;;3.34;80.24
24013;BME280;12220;50.194;18.948;2023-01-25T09:55:43;103535.06;;;3.35;80.26
24013;BME280;12220;50.194;18.948;2023-01-25T09:57:54;103520.63;;;3.36;80.25
24013;BME280;12220;50.194;18.948;2023-01-25T10:00:05;103526.06;;;3.39;80.25
24013;BME280;12220;50.194;18.948;2023-01-25T10:04:39;103516.11;;;3.39;80.13
24013;BME280;12220;50.194;18.948;2023-01-25T10:06:53;103510.70;;;3.38;80.00
24013;BME280;12220;50.194;18.948;2023-01-25T10:11:32;103504.39;;;3.37;80.04
24013;BME280;12220;50.194;18.948;2023-01-25T10:13:33;103503.49;;;3.37;80.21
24013;BME280;12220;50.194;18.948;2023-01-25T10:15:39;103502.58;;;3.39;80.08
24013;BME280;12220;50.194;18.948;2023-01-25T10:17:43;103495.38;;;3.40;80.04
24013;BME280;12220;50.194;18.948;2023-01-25T10:19:59;103251.15;;;2.04;79.90
24013;BME280;12220;50.194;18.948;2023-01-25T10:22:14;103489.08;;;3.42;80.01
24013;BME280;12220;50.194;18.948;2023-01-25T10:26:34;103479.13;;;3.44;80.03
24013;BME280;12220;50.194;18.948;2023-01-25T10:28:49;103480.95;;;3.47;80.06
24013;BME280;12220;50.194;18.948;2023-01-25T10:30:58;103483.66;;;3.48;80.03
24013;BME280;12220;50.194;18.948;2023-01-25T10:33:09;103492.70;;;3.51;79.96
24013;BME280;12220;50.194;18.948;2023-01-25T10:35:21;103492.70;;;3.51;79.89
24013;BME280;12220;50.194;18.948;2023-01-25T10:37:30;103479.14;;;3.52;79.90
24013;BME280;12220;50.194;18.948;2023-01-25T10:39:38;103480.08;;;3.54;79.93
24013;BME280;12220;50.194;18.948;2023-01-25T10:41:47;103478.27;;;3.56;79.92
24013;BME280;12220;50.194;18.948;2023-01-25T10:43:49;103474.67;;;3.59;79.84
24013;BME280;12220;50.194;18.948;2023-01-25T10:48:26;103467.43;;;3.58;79.62
24013;BME280;12220;50.194;18.948;2023-01-25T10:53:17;103457.52;;;3.60;79.64
24013;BME280;12220;50.194;18.948;2023-01-25T10:55:20;103461.12;;;3.60;79.57
24013;BME280;12220;50.194;18.948;2023-01-25T10:57:28;103452.10;;;3.61;79.54
24013;BME280;12220;50.194;18.948;2023-01-25T10:59:37;103447.59;;;3.63;79.54
24013;BME280;12220;50.194;18.948;2023-01-25T11:01:42;103437.63;;;3.62;79.38
24013;BME280;12220;50.194;18.948;2023-01-25T11:03:43;103445.75;;;3.64;79.38
24013;BME280;12220;50.194;18.948;2023-01-25T11:05:54;103435.84;;;3.64;79.35
24013;BME280;12220;50.194;18.948;2023-01-25T11:07:57;103426.80;;;3.65;79.33
24013;BME280;12220;50.194;18.948;2023-01-25T11:09:59;103426.82;;;3.67;79.29
24013;BME280;12220;50.194;18.948;2023-01-25T11:12:15;103427.71;;;3.68;79.14
24013;BME280;12220;50.194;18.948;2023-01-25T11:14:17;103422.29;;;3.66;78.92
24013;BME280;12220;50.194;18.948;2023-01-25T11:16:34;103415.95;;;3.65;78.87
24013;BME280;12220;50.194;18.948;2023-01-25T11:23:22;103413.27;;;3.70;78.84
24013;BME280;12220;50.194;18.948;2023-01-25T11:25:33;103406.03;;;3.71;78.81
24013;BME280;12220;50.194;18.948;2023-01-25T11:27:34;103404.21;;;3.71;78.73
24013;BME280;12220;50.194;18.948;2023-01-25T11:29:36;103406.03;;;3.72;78.59
24013;BME280;12220;50.194;18.948;2023-01-25T11:31:38;103397.01;;;3.70;78.42
24013;BME280;12220;50.194;18.948;2023-01-25T11:33:48;103394.30;;;3.69;78.46
24013;BME280;12220;50.194;18.948;2023-01-25T11:36:02;103391.60;;;3.70;78.52
24013;BME280;12220;50.194;18.948;2023-01-25T11:42:37;103379.86;;;3.76;78.43